Time;durP1;ratioP1;P1;durP2;ratioP2;P2;SDS_P1;SDS_P2;PMS_P1;PMS_P2;Temp;Humidity;BMP_temperature;BMP_pressure;BME280_temperature;BME280_humidity;BME280_pressure;Samples;Min_cycle;Max_cycle;Signal;HPM_P1;HPM_P2
2021/11/14 00:00:36;;;;;;;10.82;7.40;;;9.10;99.90;;;7.52;100.00;101240.31;2568764;30;137327;-40
2021/11/14 00:03:05;;;;;;;10.48;7.18;;;9.10;99.90;;;7.49;100.00;101244.25;2569805;30;137536;-40
2021/11/14 00:05:36;;;;;;;10.15;6.97;;;9.10;99.90;;;7.51;100.00;101252.22;2568025;30;137993;-40
2021/11/14 00:08:04;;;;;;;9.57;6.85;;;9.10;99.90;;;7.49;100.00;101247.81;2568241;30;136990;-40
2021/11/14 00:10:35;;;;;;;10.00;7.13;;;9.10;99.90;;;7.47;100.00;101240.88;2567369;30;137749;-40
2021/11/14 00:13:04;;;;;;;10.75;7.28;;;9.10;99.90;;;7.45;100.00;101240.22;2568255;30;137654;-40
2021/11/14 00:15:32;;;;;;;10.70;7.70;;;9.10;99.90;;;7.46;100.00;101247.34;2569128;30;137351;-40
2021/11/14 00:18:01;;;;;;;12.25;8.55;;;9.10;99.90;;;7.51;100.00;101250.34;2566491;30;137820;-40
2021/11/14 00:20:29;;;;;;;13.45;8.45;;;9.10;99.90;;;7.47;100.00;101244.44;2568814;30;137248;-40
2021/11/14 00:22:57;;;;;;;;;;;9.10;99.90;;;7.53;100.00;101252.88;2569136;30;137544;-39
2021/11/14 00:25:25;;;;;;;13.35;9.07;;;9.10;99.90;;;7.58;100.00;101254.03;2568636;30;138401;-40
2021/11/14 00:27:54;;;;;;;15.90;8.98;;;9.10;99.90;;;7.59;100.00;101249.44;2566542;30;137604;-40
2021/11/14 00:30:29;;;;;;;13.90;8.40;;;9.20;99.90;;;7.58;100.00;101259.44;2565117;30;140465;-40
2021/11/14 00:32:57;;;;;;;13.32;8.98;;;9.20;99.90;;;7.58;100.00;101256.75;2567720;30;139209;-40
2021/11/14 00:35:25;;;;;;;11.15;7.90;;;9.20;99.90;;;7.57;100.00;101251.50;2567864;30;136890;-40
2021/11/14 00:37:52;;;;;;;;;;;9.20;99.90;;;7.56;100.00;101249.78;2567231;30;138093;-40
2021/11/14 00:40:28;;;;;;;13.48;8.52;;;9.10;99.90;;;7.57;100.00;101257.75;2567886;30;137387;-39
2021/11/14 00:42:57;;;;;;;12.43;8.27;;;9.20;99.90;;;7.56;100.00;101258.78;2567655;30;136989;-40
2021/11/14 00:45:28;;;;;;;13.85;9.18;;;9.10;99.90;;;7.57;100.00;101254.22;2568025;30;137867;-40
2021/11/14 00:47:58;;;;;;;19.35;9.32;;;9.10;99.90;;;7.59;100.00;101263.03;2566645;30;138016;-40
2021/11/14 00:50:26;;;;;;;14.30;9.50;;;9.20;99.90;;;7.57;100.00;101257.75;2567809;30;137974;-40
2021/11/14 00:52:54;;;;;;;;;;;9.10;99.90;;;7.52;100.00;101252.03;2567567;30;137062;-40
2021/11/14 00:55:21;;;;;;;12.82;8.70;;;9.20;99.90;;;7.56;100.00;101257.94;2568362;30;137115;-40
2021/11/14 00:57:49;;;;;;;13.45;8.60;;;9.10;99.90;;;7.56;100.00;101264.22;2567162;30;138521;-40
2021/11/14 01:00:21;;;;;;;;;;;9.10;99.90;;;7.54;100.00;101266.28;2568215;30;139388;-40
2021/11/14 01:02:51;;;;;;;13.43;9.13;;;9.10;99.90;;;7.60;100.00;101265.53;2567094;30;137052;-40
2021/11/14 01:05:22;;;;;;;14.07;8.88;;;9.20;99.90;;;7.60;100.00;101270.97;2567171;30;138313;-40
2021/11/14 01:07:50;;;;;;;13.85;8.75;;;9.20;99.90;;;7.59;100.00;101274.72;2568931;30;137608;-39
2021/11/14 01:10:24;;;;;;;15.38;9.32;;;9.20;99.90;;;7.66;100.00;101276.69;2565948;30;138289;-40
2021/11/14 01:12:52;;;;;;;15.95;10.23;;;9.20;99.90;;;7.59;100.00;101274.72;2568854;30;137574;-40
2021/11/14 01:15:22;;;;;;;14.00;9.45;;;9.20;99.90;;;7.61;100.00;101278.09;2567062;30;138352;-39
2021/11/14 01:17:56;;;;;;;13.95;9.32;;;9.20;99.90;;;7.61;100.00;101282.69;2565895;30;137819;-40
2021/11/14 01:20:35;;;;;;;13.73;9.07;;;9.20;99.90;;;7.57;100.00;101289.53;2567569;30;137792;-40
2021/11/14 01:23:06;;;;;;;17.30;9.93;;;9.20;99.90;;;7.53;100.00;101291.75;2568105;30;137894;-40
2021/11/14 01:25:36;;;;;;;13.18;9.13;;;9.10;99.90;;;7.54;100.00;101288.00;2567846;30;139243;-40
2021/11/14 01:28:05;;;;;;;14.63;9.57;;;9.10;99.90;;;7.51;100.00;101299.22;2567481;30;137588;-40
2021/11/14 01:30:41;;;;;;;14.63;9.63;;;9.10;99.90;;;7.44;100.00;101295.56;2567993;30;138594;-40
2021/11/14 01:33:11;;;;;;;14.20;9.30;;;9.10;99.90;;;7.48;100.00;101302.31;2567404;30;137457;-40
2021/11/14 01:35:38;;;;;;;14.75;9.60;;;9.10;99.90;;;7.44;100.00;101293.66;2565658;30;139045;-40
2021/11/14 01:38:08;;;;;;;14.68;8.93;;;9.00;99.90;;;7.43;100.00;101296.59;2567524;30;137039;-40
2021/11/14 01:40:46;;;;;;;14.40;8.98;;;9.00;99.90;;;7.42;100.00;101308.44;2568440;30;138185;-40
2021/11/14 01:43:19;;;;;;;12.55;8.35;;;9.00;99.90;;;7.37;100.00;101300.84;2564146;30;138290;-40
2021/11/14 01:45:48;;;;;;;14.75;9.13;;;9.00;99.90;;;7.35;100.00;101305.63;2566976;30;138197;-40
2021/11/14 01:48:15;;;;;;;12.15;8.02;;;9.00;99.90;;;7.33;100.00;101307.66;2567324;30;137312;-39
2021/11/14 01:50:44;;;;;;;13.88;8.45;;;8.90;99.90;;;7.28;100.00;101299.19;2567800;30;137834;-40
2021/11/14 01:53:12;;;;;;;13.60;7.72;;;8.90;99.90;;;7.27;100.00;101311.94;2567763;30;138436;-40
2021/11/14 01:55:43;;;;;;;12.43;7.72;;;8.90;99.90;;;7.22;100.00;101311.63;2566719;30;138412;-40
2021/11/14 01:58:19;;;;;;;12.63;8.43;;;8.80;99.90;;;7.23;100.00;101313.31;2568501;30;139355;-40
2021/11/14 02:01:00;;;;;;;14.15;8.95;;;8.80;99.90;;;7.19;100.00;101318.25;2567728;30;137086;-40
2021/11/14 02:03:30;;;;;;;13.98;9.73;;;8.80;99.90;;;7.19;100.00;101312.81;2568326;30;137048;-40
2021/11/14 02:06:00;;;;;;;13.35;8.52;;;8.80;99.90;;;7.19;100.00;101315.53;2567824;30;138535;-40
2021/11/14 02:08:28;;;;;;;11.13;7.63;;;8.80;99.90;;;7.17;100.00;101316.75;2568550;30;138560;-40
2021/11/14 02:10:56;;;;;;;12.82;7.82;;;8.80;99.90;;;7.18;100.00;101313.00;2569208;30;137817;-40
2021/11/14 02:13:24;;;;;;;12.27;7.60;;;8.80;99.90;;;7.07;100.00;101302.53;2569160;30;137212;-40
2021/11/14 02:15:52;;;;;;;11.50;8.15;;;8.80;99.90;;;7.16;100.00;101324.03;2568165;30;137088;-40
2021/11/14 02:18:20;;;;;;;13.23;9.00;;;8.80;99.90;;;7.18;100.00;101318.44;2567739;30;137819;-40
2021/11/14 02:20:50;;;;;;;;;;;8.80;99.90;;;7.16;100.00;101325.88;2568184;30;139090;-40
2021/11/14 02:23:22;;;;;;;13.00;8.40;;;8.80;99.90;;;7.20;100.00;101325.38;2568752;30;136717;-40
2021/11/14 02:25:52;;;;;;;12.63;8.73;;;8.80;99.90;;;7.21;100.00;101328.94;2568753;30;137489;-40
2021/11/14 02:28:23;;;;;;;13.60;8.57;;;8.80;99.90;;;7.22;100.00;101327.91;2568504;30;137565;-40
2021/11/14 02:30:55;;;;;;;12.32;8.52;;;8.80;99.90;;;7.28;100.00;101331.75;2567995;30;137498;-40
2021/11/14 02:33:26;;;;;;;14.23;8.50;;;8.80;99.90;;;7.26;100.00;101339.25;2567991;30;137050;-40
2021/11/14 02:36:00;;;;;;;13.55;9.00;;;8.80;99.90;;;7.25;100.00;101338.41;2567498;30;137361;-39
2021/11/14 02:38:29;;;;;;;14.85;9.48;;;8.80;99.90;;;7.24;100.00;101336.72;2568490;30;137030;-40
2021/11/14 02:40:59;;;;;;;18.23;10.90;;;8.80;99.90;;;7.26;100.00;101339.25;2568877;30;137068;-40
2021/11/14 02:43:28;;;;;;;16.90;10.30;;;8.80;99.90;;;7.29;100.00;101356.03;2567798;30;137268;-39
2021/11/14 02:45:55;;;;;;;17.17;11.00;;;8.90;99.90;;;7.29;100.00;101353.31;2567928;30;137258;-40
2021/11/14 02:48:23;;;;;;;17.77;10.75;;;8.90;99.90;;;7.35;100.00;101354.47;2568199;30;137011;-40
2021/11/14 02:50:55;;;;;;;18.88;10.88;;;8.90;99.90;;;7.37;100.00;101357.00;2567417;30;137831;-39
2021/11/14 02:53:24;;;;;;;20.45;11.93;;;8.90;99.90;;;7.37;100.00;101357.00;2568008;30;136984;-40
2021/11/14 02:55:52;;;;;;;17.83;10.32;;;8.90;99.90;;;7.37;100.00;101357.00;2568227;30;137182;-40
2021/11/14 02:58:21;;;;;;;21.17;11.48;;;8.90;99.90;;;7.40;100.00;101353.91;2568867;30;138227;-40
2021/11/14 03:01:04;;;;;;;20.42;11.10;;;9.00;99.90;;;7.39;100.00;101361.25;2568309;30;137395;-40
2021/11/14 03:03:32;;;;;;;24.77;13.93;;;9.00;99.90;;;7.45;100.00;101360.50;2569066;30;137077;-40
2021/11/14 03:06:00;;;;;;;22.42;12.43;;;9.00;99.90;;;7.43;100.00;101357.13;2567990;30;138425;-39
2021/11/14 03:08:28;;;;;;;20.83;11.68;;;9.00;99.90;;;7.43;100.00;101372.59;2568363;30;137562;-40
2021/11/14 03:10:56;;;;;;;20.95;11.95;;;9.00;99.90;;;7.40;100.00;101357.50;2567942;30;138446;-40
2021/11/14 03:13:25;;;;;;;22.10;12.18;;;9.00;99.90;;;7.34;100.00;101359.03;2568226;30;137052;-40
2021/11/14 03:16:00;;;;;;;21.13;11.68;;;8.90;99.90;;;7.37;100.00;101359.72;2568825;30;138456;-39
2021/11/14 03:18:28;;;;;;;23.05;12.45;;;8.90;99.90;;;7.37;100.00;101367.84;2569076;30;138256;-40
2021/11/14 03:22:05;;;;;;;23.95;12.73;;;8.90;99.90;;;7.36;100.00;101366.16;2566938;30;137019;-38
2021/11/14 03:24:33;;;;;;;22.30;11.65;;;8.90;99.90;;;7.36;100.00;101366.16;2571110;30;137001;-37
2021/11/14 03:27:00;;;;;;;22.23;12.00;;;8.90;99.90;;;7.34;100.00;101375.34;2569945;30;139264;-38
2021/11/14 03:29:28;;;;;;;18.77;10.95;;;8.90;99.90;;;7.33;100.00;101384.50;2570189;30;137738;-38
2021/11/14 03:31:55;;;;;;;24.58;12.60;;;8.90;99.90;;;7.33;100.00;101389.94;2569030;30;138612;-38
2021/11/14 03:34:23;;;;;;;19.25;11.70;;;8.90;99.90;;;7.33;100.00;101395.34;2569302;30;137405;-38
2021/11/14 03:36:51;;;;;;;;;;;8.90;99.90;;;7.34;100.00;101394.34;2567874;30;139113;-38
2021/11/14 03:39:18;;;;;;;18.70;10.63;;;8.90;99.90;;;7.33;100.00;101392.66;2570999;30;137057;-38
2021/11/14 03:41:46;;;;;;;22.98;12.18;;;8.90;99.90;;;7.34;100.00;101397.06;2568906;30;139000;-38
2021/11/14 03:44:14;;;;;;;23.95;12.32;;;8.90;99.90;;;7.35;100.00;101397.91;2568547;30;137390;-38
2021/11/14 03:46:42;;;;;;;18.98;11.38;;;8.90;99.90;;;7.34;100.00;101391.63;2571055;30;138606;-38
2021/11/14 03:49:09;;;;;;;19.38;11.68;;;8.90;99.90;;;7.32;100.00;101393.66;2568843;30;137282;-39
2021/11/14 03:51:37;;;;;;;19.88;11.32;;;8.90;99.90;;;7.30;100.00;101390.28;2569255;30;138904;-38
2021/11/14 03:54:04;;;;;;;19.70;11.90;;;8.90;99.90;;;7.32;100.00;101401.81;2568248;30;137410;-38
2021/11/14 03:56:33;;;;;;;23.05;11.73;;;8.90;99.90;;;7.31;100.00;101405.56;2570735;30;137384;-38
2021/11/14 03:59:01;;;;;;;18.05;11.23;;;8.90;99.90;;;7.31;100.00;101408.25;2569907;30;136817;-38
2021/11/14 04:01:29;;;;;;;19.05;11.65;;;8.90;99.90;;;7.31;100.00;101413.69;2569479;30;138563;-38
2021/11/14 04:03:58;;;;;;;18.33;11.52;;;8.90;99.90;;;7.30;100.00;101420.16;2569777;30;136886;-38
2021/11/14 04:06:26;;;;;;;19.05;10.95;;;8.90;99.90;;;7.30;100.00;101422.03;2567747;30;138241;-38
2021/11/14 04:08:53;;;;;;;;;;;8.90;99.90;;;7.26;100.00;101416.09;2569349;30;137049;-38
2021/11/14 04:11:21;;;;;;;19.13;11.13;;;8.90;99.90;;;7.27;100.00;101420.50;2569719;30;137150;-38
2021/11/14 04:13:50;;;;;;;20.88;11.63;;;8.80;99.90;;;7.30;100.00;101430.19;2569367;30;137689;-38
2021/11/14 04:16:17;;;;;;;20.35;11.55;;;8.90;99.90;;;7.32;100.00;101426.25;2568340;30;139359;-38
2021/11/14 04:18:45;;;;;;;19.67;11.77;;;8.90;99.90;;;7.33;100.00;101427.94;2569482;30;137331;-38
2021/11/14 04:21:12;;;;;;;20.00;11.15;;;8.90;99.90;;;7.33;100.00;101432.53;2568992;30;139431;-38
2021/11/14 04:23:40;;;;;;;20.20;12.25;;;8.90;99.90;;;7.33;100.00;101438.78;2568447;30;136849;-38
2021/11/14 04:26:08;;;;;;;19.13;11.15;;;8.90;99.90;;;7.34;100.00;101437.78;2568498;30;139206;-38
2021/11/14 04:28:37;;;;;;;18.95;11.32;;;8.90;99.90;;;7.34;100.00;101435.06;2571146;30;137457;-38
2021/11/14 04:31:05;;;;;;;19.00;11.57;;;8.90;99.90;;;7.34;100.00;101435.06;2568286;30;138259;-38
2021/11/14 04:33:33;;;;;;;19.67;11.95;;;8.90;99.90;;;7.36;100.00;101447.59;2568543;30;137629;-37
2021/11/14 04:36:01;;;;;;;19.75;12.35;;;8.90;99.90;;;7.34;100.00;101440.47;2567819;30;137703;-38
2021/11/14 04:38:30;;;;;;;18.95;11.00;;;9.00;99.90;;;7.39;100.00;101447.25;2570659;30;137787;-38
2021/11/14 04:40:58;;;;;;;15.88;10.25;;;9.00;99.90;;;7.39;100.00;101452.69;2568561;30;138268;-38
2021/11/14 04:43:26;;;;;;;19.52;12.73;;;9.00;99.90;;;7.41;100.00;101456.91;2571323;30;137092;-38
2021/11/14 04:45:54;;;;;;;20.30;12.82;;;9.00;99.90;;;7.40;100.00;101457.09;2569722;30;137943;-38
2021/11/14 04:48:25;;;;;;;21.98;12.50;;;9.00;99.90;;;7.42;100.00;101461.31;2568717;30;137732;-38
2021/11/14 04:50:53;;;;;;;21.83;11.55;;;9.00;99.90;;;7.41;100.00;101456.06;2569135;30;137401;-38
2021/11/14 04:53:22;;;;;;;17.65;11.20;;;9.00;99.90;;;7.38;100.00;101460.00;2571380;30;137491;-38
2021/11/14 04:55:49;;;;;;;22.15;12.40;;;9.00;99.90;;;7.37;100.00;101457.44;2570767;30;139172;-38
2021/11/14 04:58:17;;;;;;;19.92;11.43;;;9.00;99.90;;;7.33;100.00;101452.38;2568004;30;137482;-38
2021/11/14 05:00:51;;;;;;;21.10;13.43;;;8.90;99.90;;;7.35;100.00;101468.50;2568131;30;138220;-38
2021/11/14 05:03:21;;;;;;;17.55;11.40;;;8.90;99.90;;;7.31;100.00;101470.69;2569584;30;137377;-38
2021/11/14 05:05:49;;;;;;;19.98;11.77;;;8.90;99.90;;;7.28;100.00;101472.91;2567332;30;138236;-38
2021/11/14 05:08:17;;;;;;;21.58;12.30;;;8.90;99.90;;;7.27;100.00;101471.22;2569813;30;137499;-38
2021/11/14 05:10:48;;;;;;;21.00;12.10;;;8.90;99.90;;;7.20;100.00;101477.34;2567835;30;137435;-38
2021/11/14 05:13:19;;;;;;;20.83;12.43;;;8.80;99.90;;;7.18;100.00;101479.38;2569431;30;137194;-38
2021/11/14 05:15:47;;;;;;;25.83;14.13;;;8.80;99.90;;;7.13;100.00;101486.34;2569035;30;138343;-38
2021/11/14 05:18:15;;;;;;;25.38;14.65;;;8.70;99.90;;;7.16;100.00;101489.56;2569040;30;136846;-38
2021/11/14 05:20:42;;;;;;;;;;;8.80;99.90;;;7.15;100.00;101484.31;2571333;30;138290;-38
2021/11/14 05:23:13;;;;;;;22.13;12.85;;;8.80;99.90;;;7.08;100.00;101480.59;2568413;30;137533;-38
2021/11/14 05:25:42;;;;;;;29.13;15.07;;;8.70;99.90;;;7.21;100.00;101491.78;2566259;30;138856;-38
2021/11/14 05:28:10;;;;;;;26.38;15.05;;;8.80;99.90;;;7.19;100.00;101497.38;2569415;30;137909;-38
2021/11/14 05:30:38;;;;;;;29.80;16.08;;;8.80;99.90;;;7.17;100.00;101498.56;2568679;30;137595;-38
2021/11/14 05:33:06;;;;;;;32.53;17.80;;;8.80;99.90;;;7.27;100.00;101506.50;2568984;30;139038;-38
2021/11/14 05:35:33;;;;;;;31.63;17.50;;;8.80;99.90;;;7.25;100.00;101503.97;2568772;30;137727;-38
2021/11/14 05:38:02;;;;;;;35.25;19.13;;;8.80;99.90;;;7.23;100.00;101503.31;2569315;30;137780;-38
2021/11/14 05:40:30;;;;;;;34.25;18.33;;;8.80;99.90;;;7.25;100.00;101503.13;2569722;30;138574;-38
2021/11/14 05:42:57;;;;;;;31.33;17.42;;;8.80;99.90;;;7.23;100.00;101503.31;2569696;30;137023;-38
2021/11/14 05:45:25;;;;;;;32.08;17.70;;;8.80;99.90;;;7.29;100.00;101510.75;2568005;30;138241;-38
2021/11/14 05:47:53;;;;;;;;;;;8.80;99.90;;;7.35;100.00;101514.63;2570720;30;137417;-38
2021/11/14 05:50:21;;;;;;;33.53;17.20;;;8.90;99.90;;;7.31;100.00;101521.44;2569949;30;138308;-38
2021/11/14 05:52:49;;;;;;;37.25;19.45;;;8.90;99.90;;;7.31;100.00;101518.72;2568899;30;136680;-38
2021/11/14 05:55:16;;;;;;;;;;;8.90;99.90;;;7.32;100.00;101529.41;2568802;30;138350;-38
2021/11/14 06:00:26;;;;;;;36.00;18.80;;;8.80;99.90;;;7.27;100.00;101525.50;2569359;30;138322;-38
2021/11/14 06:03:02;;;;;;;40.95;21.00;;;8.90;99.90;;;7.29;100.00;101539.75;2569176;30;138152;-38
2021/11/14 06:05:34;;;;;;;38.72;19.98;;;8.80;99.90;;;7.26;100.00;101550.94;2565991;30;137497;-38
2021/11/14 06:08:01;;;;;;;40.55;21.00;;;8.80;99.90;;;7.23;100.00;101545.88;2569279;30;137614;-38
2021/11/14 06:10:29;;;;;;;41.88;21.98;;;8.80;99.90;;;7.24;100.00;101555.72;2569123;30;139076;-38
2021/11/14 06:12:57;;;;;;;41.97;20.92;;;8.80;99.90;;;7.25;100.00;101560.13;2567139;30;137662;-38
2021/11/14 06:15:24;;;;;;;43.60;21.00;;;8.80;99.90;;;7.26;100.00;101562.66;2567303;30;137169;-38
2021/11/14 06:17:52;;;;;;;43.83;22.10;;;8.80;99.90;;;7.26;100.00;101564.53;2569264;30;137377;-38
2021/11/14 06:20:22;;;;;;;39.22;20.67;;;8.80;99.90;;;7.18;100.00;101565.41;2568204;30;138256;-38
2021/11/14 06:22:50;;;;;;;45.40;21.90;;;8.80;99.90;;;7.20;100.00;101568.78;2567883;30;137015;-38
2021/11/14 06:25:18;;;;;;;44.88;23.05;;;8.80;99.90;;;7.23;100.00;101573.88;2568540;30;139075;-38
2021/11/14 06:27:46;;;;;;;46.03;23.70;;;8.80;99.90;;;7.15;100.00;101579.28;2570491;30;137502;-38
2021/11/14 06:30:15;;;;;;;47.08;23.42;;;8.80;99.90;;;7.14;100.00;101574.88;2570763;30;138316;-38
2021/11/14 06:32:43;;;;;;;45.08;22.90;;;8.80;99.90;;;7.09;100.00;101578.13;2566746;30;138448;-38
2021/11/14 06:35:11;;;;;;;43.78;22.23;;;8.70;99.90;;;7.04;100.00;101591.38;2567409;30;138674;-38
2021/11/14 06:37:40;;;;;;;42.47;22.55;;;8.70;99.90;;;7.02;100.00;101588.81;2570138;30;137783;-38
2021/11/14 06:40:09;;;;;;;46.08;22.83;;;8.70;99.90;;;6.97;100.00;101595.75;2567204;30;138915;-38
2021/11/14 06:42:36;;;;;;;42.45;22.50;;;8.60;99.90;;;6.96;100.00;101604.91;2569273;30;137552;-38
2021/11/14 06:45:06;;;;;;;42.28;21.42;;;8.60;99.90;;;6.91;100.00;101608.16;2568509;30;138398;-38
2021/11/14 06:47:34;;;;;;;46.75;22.58;;;8.50;99.90;;;6.86;100.00;101607.78;2568918;30;136728;-38
2021/11/14 06:50:07;;;;;;;43.95;21.70;;;8.50;99.90;;;6.81;100.00;101612.88;2568005;30;137872;-38
2021/11/14 06:52:35;;;;;;;41.65;20.00;;;8.50;99.90;;;6.80;100.00;101620.19;2570799;30;137793;-38
2021/11/14 06:55:04;;;;;;;42.05;21.30;;;8.40;99.90;;;6.78;100.00;101629.50;2568778;30;138347;-38
2021/11/14 06:57:32;;;;;;;41.40;21.23;;;8.40;99.90;;;6.76;100.00;101633.22;2569554;30;137053;-39
2021/11/14 07:00:00;;;;;;;41.85;20.00;;;8.40;99.90;;;6.79;100.00;101647.47;2569594;30;138587;-38
2021/11/14 07:02:27;;;;;;;38.70;20.23;;;8.40;99.90;;;6.77;100.00;101644.94;2571681;30;137227;-38
2021/11/14 07:04:55;;;;;;;36.97;19.92;;;8.40;99.90;;;6.73;100.00;101649.84;2570376;30;138284;-38
2021/11/14 07:07:22;;;;;;;40.55;20.05;;;8.30;99.90;;;6.72;100.00;101648.13;2569739;30;137753;-38
2021/11/14 07:09:50;;;;;;;38.60;20.20;;;8.30;99.90;;;6.62;100.00;101655.56;2567361;30;139231;-38
2021/11/14 07:12:17;;;;;;;38.67;19.92;;;8.30;99.90;;;6.63;100.00;101654.56;2567675;30;138493;-38
2021/11/14 07:14:45;;;;;;;42.40;20.05;;;8.30;99.90;;;6.59;100.00;101654.03;2568862;30;137434;-38
2021/11/14 07:17:15;;;;;;;37.63;19.17;;;8.20;99.90;;;6.59;100.00;101655.88;2568963;30;138183;-38
2021/11/14 07:19:44;;;;;;;41.63;21.17;;;8.20;99.90;;;6.59;100.00;101656.75;2569995;30;138457;-38
2021/11/14 07:22:11;;;;;;;44.72;20.92;;;8.20;99.90;;;6.57;100.00;101657.91;2571003;30;138409;-38
2021/11/14 07:24:39;;;;;;;44.72;21.85;;;8.20;99.90;;;6.59;100.00;101659.47;2569823;30;138394;-37
2021/11/14 07:27:07;;;;;;;;;;;8.20;99.90;;;6.51;100.00;101669.44;2569652;30;136866;-37
2021/11/14 07:29:34;;;;;;;42.53;19.67;;;8.20;99.90;;;6.52;100.00;101674.69;2569752;30;138352;-38
2021/11/14 07:32:02;;;;;;;44.63;20.70;;;8.20;99.90;;;6.57;100.00;101691.31;2570716;30;137526;-38
2021/11/14 07:34:30;;;;;;;42.80;20.80;;;8.20;99.90;;;6.53;100.00;101681.81;2567945;30;137480;-37
2021/11/14 07:36:58;;;;;;;46.40;22.08;;;8.20;99.90;;;6.63;100.00;101700.66;2569138;30;137668;-38
2021/11/14 07:39:25;;;;;;;45.83;21.02;;;8.20;99.90;;;6.65;100.00;101700.47;2569271;30;137799;-38
2021/11/14 07:41:53;;;;;;;;;;;8.20;99.90;;;6.68;100.00;101709.16;2570652;30;137579;-38
2021/11/14 07:44:21;;;;;;;51.47;21.88;;;8.30;99.90;;;6.67;100.00;101702.03;2568751;30;138286;-37
2021/11/14 07:46:48;;;;;;;46.75;21.60;;;8.30;99.90;;;6.72;100.00;101713.22;2569324;30;136728;-38
2021/11/14 07:49:16;;;;;;;44.70;20.67;;;8.30;99.90;;;6.72;100.00;101710.50;2568483;30;138730;-38
2021/11/14 07:51:44;;;;;;;54.65;22.58;;;8.30;99.90;;;6.72;100.00;101715.06;2569255;30;137782;-38
2021/11/14 07:54:12;;;;;;;45.92;20.55;;;8.30;99.90;;;6.69;100.00;101724.41;2567334;30;138829;-38
2021/11/14 07:56:40;;;;;;;45.95;21.30;;;8.30;99.90;;;6.72;100.00;101729.50;2570061;30;137577;-38
2021/11/14 07:59:07;;;;;;;44.05;20.98;;;8.30;99.90;;;6.74;100.00;101724.75;2569045;30;138507;-38
2021/11/14 08:01:35;;;;;;;48.90;22.08;;;8.40;99.90;;;6.67;100.00;101733.72;2569000;30;138551;-38
2021/11/14 08:04:03;;;;;;;46.75;21.10;;;8.30;99.90;;;6.67;100.00;101737.28;2567639;30;138237;-38
2021/11/14 08:06:31;;;;;;;50.55;20.38;;;8.30;99.90;;;6.67;100.00;101740.00;2570374;30;137899;-38
2021/11/14 08:08:58;;;;;;;47.50;21.55;;;8.30;99.90;;;6.66;100.00;101735.59;2568681;30;137723;-38
2021/11/14 08:11:27;;;;;;;50.83;22.80;;;8.30;99.90;;;6.65;100.00;101744.75;2568412;30;137562;-38
2021/11/14 08:13:55;;;;;;;50.00;22.80;;;8.30;99.90;;;6.69;100.00;101750.66;2569979;30;138723;-38
2021/11/14 08:16:22;;;;;;;46.30;22.02;;;8.30;99.90;;;6.69;100.00;101747.94;2569770;30;136888;-39
2021/11/14 08:18:50;;;;;;;50.22;21.67;;;8.30;99.90;;;6.69;100.00;101753.38;2570391;30;138376;-38
2021/11/14 08:21:18;;;;;;;45.03;21.15;;;8.30;99.90;;;6.70;100.00;101755.94;2570669;30;137463;-38
2021/11/14 08:23:46;;;;;;;;;;;8.30;99.90;;;6.73;100.00;101761.03;2568649;30;138725;-38
2021/11/14 08:26:13;;;;;;;54.65;21.80;;;8.30;99.90;;;6.73;100.00;101760.16;2570485;30;137062;-38
2021/11/14 08:28:41;;;;;;;46.42;22.60;;;8.40;99.90;;;6.73;100.00;101763.75;2569505;30;138092;-38
2021/11/14 08:31:08;;;;;;;49.72;22.77;;;8.30;99.90;;;6.78;100.00;101771.41;2570545;30;136827;-38
2021/11/14 08:33:38;;;;;;;52.90;22.92;;;8.40;99.90;;;6.76;100.00;101773.41;2568825;30;138248;-38
2021/11/14 08:36:05;;;;;;;54.15;24.42;;;8.40;99.90;;;6.71;100.00;101773.03;2569977;30;137581;-38
2021/11/14 08:38:34;;;;;;;50.38;23.45;;;8.30;99.90;;;6.73;100.00;101773.72;2567544;30;137350;-38
2021/11/14 08:41:03;;;;;;;48.10;23.92;;;8.30;99.90;;;6.81;100.00;101784.63;2567400;30;137967;-38
2021/11/14 08:43:32;;;;;;;51.92;23.55;;;8.40;99.90;;;6.79;100.00;101785.78;2566467;30;137218;-38
2021/11/14 08:46:00;;;;;;;54.08;23.45;;;8.40;99.90;;;6.83;100.00;101781.72;2569849;30;137283;-38
2021/11/14 08:48:28;;;;;;;46.10;22.83;;;8.40;99.90;;;6.75;100.00;101775.28;2568213;30;138905;-38
2021/11/14 08:50:56;;;;;;;48.10;22.33;;;8.40;99.90;;;6.85;100.00;101788.72;2569652;30;138597;-38
2021/11/14 08:53:24;;;;;;;49.35;22.08;;;8.40;99.90;;;6.88;100.00;101787.50;2568284;30;138279;-38
2021/11/14 08:55:56;;;;;;;;;;;8.40;99.90;;;6.90;100.00;101788.22;2569721;30;137267;-38
2021/11/14 08:58:36;;;;;;;42.85;20.92;;;8.50;99.90;;;6.96;100.00;101795.69;2566774;30;138355;-38
2021/11/14 09:01:08;;;;;;;43.00;20.67;;;8.50;99.90;;;6.90;100.00;101799.06;2568454;30;136925;-38
2021/11/14 09:03:37;;;;;;;40.22;19.40;;;8.50;99.90;;;6.99;100.00;101810.78;2569350;30;138713;-38
2021/11/14 09:06:05;;;;;;;38.03;19.83;;;8.50;99.90;;;6.94;100.00;101805.88;2569873;30;137146;-38
2021/11/14 09:08:33;;;;;;;36.60;18.35;;;8.60;99.90;;;6.96;100.00;101814.69;2569484;30;137367;-38
2021/11/14 09:11:01;;;;;;;32.83;18.08;;;8.50;99.90;;;6.97;100.00;101813.69;2568734;30;136916;-38
2021/11/14 09:13:28;;;;;;;;;;;8.50;99.90;;;6.96;100.00;101813.81;2569025;30;138474;-38
2021/11/14 09:16:00;;;;;;;33.45;16.63;;;8.50;99.90;;;7.03;100.00;101823.88;2570472;30;137227;-38
2021/11/14 09:18:29;;;;;;;30.45;15.82;;;8.60;99.90;;;7.02;100.00;101819.44;2567685;30;137457;-38
2021/11/14 09:20:57;;;;;;;29.35;15.48;;;8.60;99.90;;;7.05;100.00;101819.13;2564975;30;138637;-39
2021/11/14 09:23:28;;;;;;;30.83;15.73;;;8.60;99.90;;;7.07;100.00;101824.41;2567835;30;137476;-40
2021/11/14 09:25:57;;;;;;;28.85;16.17;;;8.60;99.90;;;7.11;100.00;101823.03;2566566;30;138606;-40
2021/11/14 09:28:25;;;;;;;28.80;15.27;;;8.70;99.90;;;7.12;100.00;101827.47;2566873;30;138360;-39
2021/11/14 09:30:54;;;;;;;24.75;14.30;;;8.70;99.90;;;7.19;100.00;101827.66;2568127;30;138410;-40
2021/11/14 09:33:27;;;;;;;26.15;14.30;;;8.70;99.90;;;7.22;100.00;101832.75;2566894;30;138525;-40
2021/11/14 09:35:56;;;;;;;27.88;15.13;;;8.70;99.90;;;7.25;100.00;101836.97;2567753;30;137505;-40
2021/11/14 09:38:23;;;;;;;23.90;13.93;;;8.80;99.90;;;7.33;100.00;101845.16;2567504;30;138967;-40
2021/11/14 09:40:51;;;;;;;22.70;13.10;;;8.80;99.90;;;7.34;100.00;101844.16;2566978;30;137430;-39
2021/11/14 09:43:20;;;;;;;21.63;12.80;;;8.80;99.90;;;7.38;100.00;101847.34;2566380;30;137841;-40
2021/11/14 09:45:52;;;;;;;25.10;13.57;;;8.90;99.90;;;7.49;100.00;101839.75;2567542;30;137070;-39
2021/11/14 09:48:21;;;;;;;20.48;12.40;;;8.90;99.90;;;7.52;100.00;101837.72;2564602;30;139579;-40
2021/11/14 09:51:00;;;;;;;23.70;13.82;;;9.00;99.90;;;7.51;100.00;101847.75;2568756;30;137558;-40
2021/11/14 09:53:33;;;;;;;19.38;12.10;;;9.00;99.90;;;7.59;100.00;101845.03;2565708;30;139661;-40
2021/11/14 09:56:04;;;;;;;22.48;12.90;;;9.10;99.90;;;7.66;100.00;101853.38;2567160;30;136772;-39
2021/11/14 09:58:33;;;;;;;19.70;12.95;;;9.10;99.90;;;7.68;100.00;101854.03;2567754;30;137944;-40
2021/11/14 10:01:05;;;;;;;19.52;12.15;;;9.20;99.90;;;7.79;100.00;101861.00;2568089;30;137006;-40
2021/11/14 10:03:33;;;;;;;21.05;12.13;;;9.20;99.90;;;7.86;100.00;101856.59;2568136;30;136805;-40
2021/11/14 10:06:01;;;;;;;18.95;11.80;;;9.30;99.90;;;7.89;100.00;101864.41;2568234;30;137857;-40
2021/11/14 10:08:44;;;;;;;18.77;12.02;;;9.30;99.90;;;7.97;100.00;101860.00;2565801;30;137480;-40
2021/11/14 10:11:12;;;;;;;17.58;10.50;;;9.40;99.90;;;7.95;100.00;101867.47;2568052;30;137555;-40
2021/11/14 10:13:48;;;;;;;16.67;10.90;;;9.40;99.90;;;7.99;100.00;101860.69;2567009;30;137660;-40
2021/11/14 10:16:19;;;;;;;17.35;10.73;;;9.40;99.90;;;8.02;100.00;101865.78;2567165;30;137722;-40